Time;durP1;ratioP1;P1;durP2;ratioP2;P2;SDS_P1;SDS_P2;PMS_P1;PMS_P2;Temp;Humidity;BMP_temperature;BMP_pressure;BME280_temperature;BME280_humidity;BME280_pressure;Samples;Min_cycle;Max_cycle;Signal;HPM_P1;HPM_P2
2023/06/22 00:00:50;;;;;;;19.55;17.83;;;15.60;99.90;;;;;;5036161;28;20059;-70
2023/06/22 00:03:18;;;;;;;21.45;19.40;;;15.60;99.90;;;;;;5038994;28;20048;-73
2023/06/22 00:05:48;;;;;;;19.25;17.40;;;15.60;99.90;;;;;;5035143;28;20374;-74
2023/06/22 00:08:15;;;;;;;20.55;18.55;;;15.60;99.90;;;;;;5040113;28;20053;-72
2023/06/22 00:10:42;;;;;;;22.33;20.02;;;15.60;99.90;;;;;;5038770;28;20129;-71
2023/06/22 00:13:09;;;;;;;16.80;15.27;;;15.50;99.90;;;;;;5037812;28;20045;-74
2023/06/22 00:15:38;;;;;;;14.35;13.05;;;15.50;99.90;;;;;;5039926;28;20049;-72
2023/06/22 00:18:08;;;;;;;15.50;14.20;;;15.40;99.90;;;;;;5037812;28;20092;-72
2023/06/22 00:20:33;;;;;;;15.93;14.43;;;15.40;99.90;;;;;;5037410;28;20552;-75
2023/06/22 00:23:00;;;;;;;16.83;15.32;;;15.40;99.90;;;;;;5022511;28;20044;-73
2023/06/22 00:25:26;;;;;;;20.95;18.88;;;17.60;99.90;;;;;;5032661;28;20132;-73
2023/06/22 00:27:52;;;;;;;20.67;18.58;;;15.30;99.90;;;;;;5040137;28;20779;-72
2023/06/22 00:30:18;;;;;;;24.35;21.85;;;15.30;99.90;;;;;;5017658;28;20121;-72
2023/06/22 00:32:45;;;;;;;14.70;13.48;;;15.20;99.90;;;;;;5040056;28;20052;-71
2023/06/22 00:35:12;;;;;;;12.75;11.68;;;15.20;99.90;;;;;;5039189;28;20060;-72
2023/06/22 00:37:41;;;;;;;11.18;10.35;;;15.20;99.90;;;;;;5035561;28;20049;-73
2023/06/22 00:40:11;;;;;;;12.00;11.00;;;15.20;99.90;;;;;;5024115;28;20057;-73
2023/06/22 00:42:38;;;;;;;11.80;10.75;;;15.10;99.90;;;;;;5032360;28;20132;-73
2023/06/22 00:45:07;;;;;;;13.43;12.32;;;15.10;99.90;;;;;;4999300;28;20053;-72
2023/06/22 00:47:36;;;;;;;13.82;12.60;;;15.00;99.90;;;;;;5010138;28;20059;-73
2023/06/22 00:50:03;;;;;;;13.02;11.82;;;15.00;99.90;;;;;;5040160;28;20049;-74
2023/06/22 00:52:30;;;;;;;16.55;14.32;;;15.00;99.90;;;;;;5039667;28;20056;-72
2023/06/22 00:54:57;;;;;;;16.63;14.93;;;15.00;99.90;;;;;;5039681;28;20052;-71
2023/06/22 00:57:27;;;;;;;16.30;14.80;;;15.00;99.90;;;;;;5040163;28;20045;-73
2023/06/22 00:59:55;;;;;;;17.08;15.55;;;15.00;99.90;;;;;;5041882;28;20053;-74
2023/06/22 01:02:22;;;;;;;20.38;18.45;;;15.00;99.90;;;;;;5043419;28;20045;-71
2023/06/22 01:04:50;;;;;;;23.17;21.00;;;15.00;99.90;;;;;;5042446;28;20134;-73
2023/06/22 01:07:30;;;;;;;22.95;20.75;;;14.90;99.90;;;;;;5024646;28;20053;-72
2023/06/22 01:10:14;;;;;;;23.02;20.70;;;14.90;99.90;;;;;;5038473;28;20041;-74
2023/06/22 01:12:54;;;;;;;20.90;18.80;;;14.90;99.90;;;;;;5016641;28;20573;-73
2023/06/22 01:15:28;;;;;;;29.63;26.42;;;14.90;99.90;;;;;;5033985;28;20684;-73
2023/06/22 01:17:56;;;;;;;33.63;29.90;;;14.80;99.90;;;;;;5039126;28;20277;-75
2023/06/22 01:20:23;;;;;;;34.58;28.30;;;14.80;99.90;;;;;;5041934;28;20067;-74
2023/06/22 01:23:03;;;;;;;30.65;27.02;;;14.70;99.90;;;;;;5038836;28;20049;-75
2023/06/22 01:25:44;;;;;;;29.83;25.58;;;14.70;99.90;;;;;;5034625;28;20055;-72
2023/06/22 01:28:43;;;;;;;27.13;24.23;;;14.70;99.90;;;;;;5038962;28;20044;-71
2023/06/22 01:31:13;;;;;;;25.73;21.50;;;14.60;99.90;;;;;;5039505;28;20134;-74
2023/06/22 01:33:43;;;;;;;20.63;18.63;;;14.60;99.90;;;;;;5043049;28;20049;-75
2023/06/22 01:36:10;;;;;;;21.70;19.60;;;14.50;99.90;;;;;;5048129;28;20104;-75
2023/06/22 01:38:38;;;;;;;21.73;19.38;;;14.50;99.90;;;;;;5017159;28;20130;-74
2023/06/22 01:41:04;;;;;;;23.45;21.15;;;14.50;99.90;;;;;;5039914;28;20056;-75
2023/06/22 01:43:31;;;;;;;24.52;21.25;;;14.40;99.90;;;;;;5038876;28;20114;-72
2023/06/22 01:46:01;;;;;;;22.60;19.50;;;14.40;99.90;;;;;;5018440;28;20049;-74
2023/06/22 01:48:27;;;;;;;22.10;19.85;;;14.40;99.90;;;;;;5037675;28;20077;-73
2023/06/22 01:50:53;;;;;;;21.50;18.98;;;14.30;99.90;;;;;;5035549;28;20526;-72
2023/06/22 01:53:23;;;;;;;21.05;17.95;;;14.30;99.90;;;;;;5032827;28;20059;-71
2023/06/22 01:55:49;;;;;;;16.65;15.05;;;14.30;99.90;;;;;;5036747;28;20057;-72
2023/06/22 01:58:15;;;;;;;16.33;14.68;;;14.20;99.90;;;;;;5015517;28;20052;-73
2023/06/22 02:00:48;;;;;;;19.58;17.63;;;14.00;99.90;;;;;;5036653;28;20045;-72
2023/06/22 02:03:21;;;;;;;17.10;15.60;;;14.10;99.90;;;;;;5009718;28;20049;-73
2023/06/22 02:05:55;;;;;;;17.63;15.85;;;14.10;99.90;;;;;;5042010;28;20513;-73
2023/06/22 02:08:28;;;;;;;19.50;17.08;;;14.00;99.90;;;;;;5039844;28;20155;-72
2023/06/22 02:10:56;;;;;;;18.23;16.42;;;14.00;99.90;;;;;;5039005;28;20076;-72
2023/06/22 02:13:24;;;;;;;20.13;18.23;;;13.90;99.90;;;;;;5038842;28;20109;-73
2023/06/22 02:15:50;;;;;;;17.60;16.05;;;13.90;99.90;;;;;;5038947;28;20049;-71
2023/06/22 02:18:16;;;;;;;16.98;15.57;;;13.80;99.90;;;;;;5043204;28;20052;-74
2023/06/22 02:20:43;;;;;;;18.67;16.98;;;13.80;99.90;;;;;;5042316;28;20048;-72
2023/06/22 02:23:10;;;;;;;16.83;15.40;;;13.70;99.90;;;;;;5042674;28;20071;-73
2023/06/22 02:25:36;;;;;;;19.02;16.80;;;13.70;99.90;;;;;;5023578;28;20075;-73
2023/06/22 02:28:02;;;;;;;20.20;18.50;;;13.60;99.90;;;;;;5036195;28;20076;-72
2023/06/22 02:30:28;;;;;;;35.70;17.67;;;13.60;99.90;;;;;;5041151;28;20049;-72
2023/06/22 02:32:58;;;;;;;29.20;18.17;;;13.60;99.90;;;;;;5039899;28;20064;-72
2023/06/22 02:35:31;;;;;;;18.98;16.92;;;13.50;99.90;;;;;;5023372;28;20057;-73
2023/06/22 02:37:59;;;;;;;18.23;16.73;;;13.40;99.90;;;;;;5031127;28;20080;-73
2023/06/22 02:40:25;;;;;;;24.58;16.23;;;13.40;99.90;;;;;;5020439;28;20508;-72
2023/06/22 02:42:51;;;;;;;24.00;19.23;;;11.70;99.90;;;;;;5039537;28;20072;-72
2023/06/22 02:45:16;;;;;;;54.00;22.08;;;14.30;99.90;;;;;;5036011;28;20041;-73
2023/06/22 02:47:47;;;;;;;39.38;22.58;;;13.30;99.90;;;;;;5041664;28;20347;-73
2023/06/22 02:50:15;;;;;;;95.60;25.63;;;13.20;99.90;;;;;;5017455;28;20049;-72
2023/06/22 02:52:41;;;;;;;45.47;24.33;;;13.20;99.90;;;;;;5012146;28;20055;-72
2023/06/22 02:55:08;;;;;;;56.30;25.45;;;13.10;99.90;;;;;;5040138;28;20049;-73
2023/06/22 02:57:34;;;;;;;66.78;23.77;;;13.10;99.90;;;;;;5039498;28;20056;-72
2023/06/22 03:03:40;;;;;;;24.27;21.65;;;13.00;99.90;;;;;;5056137;22;20107;-71
2023/06/22 03:06:07;;;;;;;28.17;23.08;;;12.90;99.90;;;;;;5032363;28;20080;-71
2023/06/22 03:08:37;;;;;;;21.15;19.38;;;12.90;99.90;;;;;;5045358;28;20151;-72
2023/06/22 03:11:04;;;;;;;23.55;21.52;;;12.80;99.90;;;;;;5051318;28;20055;-72
2023/06/22 03:13:30;;;;;;;69.82;25.58;;;12.70;99.90;;;;;;5046543;28;20055;-73
2023/06/22 03:15:56;;;;;;;25.27;22.88;;;12.70;99.90;;;;;;5046374;28;20079;-71
2023/06/22 03:18:22;;;;;;;26.90;24.30;;;12.70;99.90;;;;;;5045498;28;20048;-72
2023/06/22 03:20:48;;;;;;;25.70;23.42;;;12.70;99.90;;;;;;5046547;28;20102;-73
2023/06/22 03:23:14;;;;;;;23.70;21.70;;;12.70;99.90;;;;;;5045573;28;20463;-72
2023/06/22 03:25:44;;;;;;;27.38;24.77;;;12.70;99.90;;;;;;5030071;28;20048;-72
2023/06/22 03:28:12;;;;;;;26.88;24.05;;;12.70;99.90;;;;;;5029462;28;20052;-72
2023/06/22 03:30:38;;;;;;;25.50;23.20;;;12.60;99.90;;;;;;5039530;28;20142;-73
2023/06/22 03:33:04;;;;;;;25.10;22.90;;;12.60;99.90;;;;;;5045232;28;20220;-72
2023/06/22 03:35:30;;;;;;;27.25;24.55;;;12.60;99.90;;;;;;5044785;28;20543;-72
2023/06/22 03:37:56;;;;;;;38.67;26.67;;;12.70;99.90;;;;;;5044594;28;20577;-71
2023/06/22 03:40:24;;;;;;;28.95;26.10;;;12.70;99.90;;;;;;5044984;28;20056;-72
2023/06/22 03:42:53;;;;;;;28.27;25.58;;;12.70;99.90;;;;;;5044865;28;20394;-72
2023/06/22 03:45:19;;;;;;;26.35;24.05;;;12.70;99.90;;;;;;5028318;28;20177;-72
2023/06/22 03:47:45;;;;;;;27.95;25.63;;;12.70;99.90;;;;;;5027555;28;20056;-72
2023/06/22 03:50:11;;;;;;;26.98;24.38;;;12.70;99.90;;;;;;5044457;28;20112;-73
2023/06/22 03:52:51;;;;;;;26.38;23.75;;;12.70;99.90;;;;;;5039302;28;20044;-72
2023/06/22 03:55:17;;;;;;;23.40;21.35;;;12.80;99.90;;;;;;5044913;28;20056;-72
2023/06/22 03:57:44;;;;;;;25.30;23.23;;;12.60;99.90;;;;;;5034114;28;20370;-73
2023/06/22 04:00:11;;;;;;;26.17;23.98;;;12.80;99.90;;;;;;5045816;28;20072;-72
2023/06/22 04:02:37;;;;;;;24.45;22.45;;;12.90;99.90;;;;;;5046339;28;20523;-73
2023/06/22 04:05:03;;;;;;;26.08;23.67;;;13.00;99.90;;;;;;5044760;28;20130;-72
2023/06/22 04:07:29;;;;;;;26.70;24.23;;;13.00;99.90;;;;;;5029980;28;20052;-72
2023/06/22 04:09:55;;;;;;;24.10;22.10;;;13.10;99.90;;;;;;5047354;28;20059;-72
2023/06/22 04:12:21;;;;;;;26.38;23.98;;;13.10;99.90;;;;;;5047381;28;20083;-73
2023/06/22 04:14:46;;;;;;;27.65;25.10;;;13.20;99.90;;;;;;5047377;28;20075;-73
2023/06/22 04:17:14;;;;;;;52.95;28.88;;;13.20;99.90;;;;;;5046873;28;20056;-73
2023/06/22 04:19:40;;;;;;;109.45;30.17;;;13.30;99.90;;;;;;5046680;28;20060;-74
2023/06/22 04:22:09;;;;;;;124.63;29.90;;;13.40;99.90;;;;;;5047788;28;20414;-73
2023/06/22 04:24:37;;;;;;;39.15;29.60;;;13.50;99.90;;;;;;5030674;28;20124;-73
2023/06/22 04:27:13;;;;;;;30.10;27.23;;;11.70;99.90;;;;;;5044602;28;20064;-72
2023/06/22 04:29:48;;;;;;;28.58;26.02;;;13.70;99.90;;;;;;5048500;28;20087;-73
2023/06/22 04:32:17;;;;;;;27.23;24.73;;;13.90;99.90;;;;;;5038738;28;20080;-72
2023/06/22 04:34:43;;;;;;;24.45;22.33;;;14.30;99.90;;;;;;5044807;28;20193;-72
2023/06/22 04:37:15;;;;;;;22.95;20.95;;;14.60;99.90;;;;;;5044897;28;20230;-72
2023/06/22 04:39:42;;;;;;;21.65;19.70;;;15.00;99.90;;;;;;5044330;28;20479;-72
2023/06/22 04:42:08;;;;;;;19.98;18.25;;;15.40;99.90;;;;;;5027413;28;20095;-72
2023/06/22 04:44:34;;;;;;;18.85;17.15;;;15.80;99.90;;;;;;5044118;28;20060;-72
2023/06/22 04:47:03;;;;;;;18.58;16.63;;;16.10;99.90;;;;;;5043638;28;20048;-72
2023/06/22 04:49:33;;;;;;;16.70;15.20;;;16.30;99.90;;;;;;5046830;28;20055;-72
2023/06/22 04:51:59;;;;;;;17.05;15.45;;;16.30;99.90;;;;;;5042888;28;20166;-73
2023/06/22 04:54:26;;;;;;;17.58;15.95;;;13.90;99.90;;;;;;5044348;28;20052;-73
2023/06/22 04:56:58;;;;;;;19.00;17.17;;;16.40;99.90;;;;;;5043879;28;20059;-72
2023/06/22 04:59:29;;;;;;;;;;;16.50;99.90;;;;;;5026698;28;20056;-72
2023/06/22 05:01:59;;;;;;;22.58;20.25;;;16.60;99.90;;;;;;5043902;28;19920;-72
2023/06/22 05:04:27;;;;;;;26.20;23.48;;;16.70;99.90;;;;;;5043220;28;20060;-72
2023/06/22 05:06:54;;;;;;;28.33;25.50;;;17.00;99.90;;;;;;5043422;28;20052;-73
2023/06/22 05:09:21;;;;;;;32.88;28.73;;;17.70;99.90;;;;;;5045304;28;20053;-73
2023/06/22 05:11:51;;;;;;;35.10;31.30;;;18.40;99.90;;;;;;5043191;28;20057;-73
2023/06/22 05:14:18;;;;;;;37.15;32.35;;;18.70;99.90;;;;;;5037161;28;20144;-72
2023/06/22 05:16:45;;;;;;;33.22;29.70;;;18.80;99.90;;;;;;5045843;28;20130;-74
2023/06/22 05:19:11;;;;;;;32.60;29.27;;;18.90;99.90;;;;;;5041348;28;20490;-74
2023/06/22 05:21:38;;;;;;;34.00;30.33;;;18.90;99.90;;;;;;5027620;28;20087;-74
2023/06/22 05:24:04;;;;;;;33.17;29.63;;;18.90;99.90;;;;;;5042566;28;20052;-75
2023/06/22 05:26:32;;;;;;;31.50;28.20;;;19.00;99.90;;;;;;5043734;28;20106;-72
2023/06/22 05:28:59;;;;;;;31.02;27.60;;;19.30;99.90;;;;;;5030827;28;20058;-72
2023/06/22 05:31:25;;;;;;;30.85;27.65;;;19.40;99.90;;;;;;5044609;28;20457;-72
2023/06/22 05:33:53;;;;;;;33.20;28.27;;;19.50;99.90;;;;;;5040846;28;20082;-73
2023/06/22 05:36:19;;;;;;;37.17;32.35;;;19.60;99.90;;;;;;5026866;28;20051;-75
2023/06/22 05:38:46;;;;;;;33.25;29.80;;;19.80;99.90;;;;;;5043230;28;20045;-75
2023/06/22 05:41:12;;;;;;;33.67;30.17;;;20.00;99.90;;;;;;5024267;28;20128;-75
2023/06/22 05:43:39;;;;;;;34.05;30.27;;;20.20;99.90;;;;;;5043251;28;20091;-74
2023/06/22 05:46:06;;;;;;;33.72;29.00;;;20.40;99.90;;;;;;5037899;28;20485;-72
2023/06/22 05:48:36;;;;;;;30.38;27.13;;;21.20;99.90;;;;;;5039232;28;20052;-73
2023/06/22 05:51:02;;;;;;;29.92;26.83;;;22.10;99.10;;;;;;5040450;28;20059;-73
2023/06/22 05:53:28;;;;;;;27.75;24.83;;;23.10;97.40;;;;;;5040195;28;20130;-76
2023/06/22 05:56:02;;;;;;;26.85;23.95;;;24.10;95.30;;;;;;5046716;28;20033;-78
2023/06/22 05:58:28;;;;;;;25.92;23.10;;;24.50;93.50;;;;;;5044285;28;20143;-76
2023/06/22 06:00:54;;;;;;;23.13;20.73;;;24.60;92.70;;;;;;5044157;28;20052;-73
2023/06/22 06:03:23;;;;;;;23.52;21.02;;;25.10;91.70;;;;;;5042349;28;20059;-75
2023/06/22 06:05:50;;;;;;;23.15;20.77;;;25.60;90.80;;;;;;5041156;28;20056;-76
2023/06/22 06:08:15;;;;;;;21.25;18.02;;;26.30;89.40;;;;;;5038544;28;20123;-77
2023/06/22 06:10:44;;;;;;;20.02;17.92;;;26.30;86.90;;;;;;5038846;28;20056;-74
2023/06/22 06:13:10;;;;;;;20.58;18.48;;;26.70;85.60;;;;;;5042018;28;20067;-78
2023/06/22 06:15:39;;;;;;;19.83;17.83;;;26.70;84.40;;;;;;5041457;28;20732;-74
2023/06/22 06:18:06;;;;;;;18.80;16.17;;;26.60;83.80;;;;;;5040511;28;20037;-75
2023/06/22 06:20:36;;;;;;;17.95;16.05;;;26.80;82.00;;;;;;5042319;28;20129;-77
2023/06/22 06:23:05;;;;;;;16.48;14.88;;;27.10;81.00;;;;;;5042880;28;20056;-78
2023/06/22 06:25:31;;;;;;;15.93;14.43;;;27.60;80.00;;;;;;5042966;28;20048;-77
2023/06/22 06:27:56;;;;;;;15.70;14.18;;;28.10;79.00;;;;;;5042664;28;20059;-75
2023/06/22 06:30:23;;;;;;;14.75;13.35;;;28.60;77.30;;;;;;5042709;28;20048;-75
2023/06/22 06:32:50;;;;;;;14.27;12.77;;;29.00;74.40;;;;;;5042945;28;20052;-77
2023/06/22 06:35:16;;;;;;;13.80;12.32;;;29.50;72.90;;;;;;5043772;28;20060;-76
2023/06/22 06:37:47;;;;;;;13.10;11.70;;;30.00;71.10;;;;;;5043042;28;20060;-74
2023/06/22 06:40:20;;;;;;;13.98;12.57;;;30.60;70.10;;;;;;5027086;28;20136;-73
2023/06/22 06:42:49;;;;;;;13.63;12.23;;;30.70;68.50;;;;;;5027556;28;20060;-75
2023/06/22 06:45:19;;;;;;;13.10;11.85;;;31.00;66.20;;;;;;5005086;28;20056;-75
2023/06/22 06:47:51;;;;;;;13.00;11.70;;;31.00;65.00;;;;;;5006504;28;20471;-79
2023/06/22 06:53:15;;;;;;;13.40;12.00;;;31.10;63.60;;;;;;5021777;28;20115;-77
2023/06/22 06:56:03;;;;;;;13.10;11.90;;;31.00;63.80;;;;;;5003660;28;20410;-77
2023/06/22 06:58:30;;;;;;;12.60;11.02;;;30.90;63.40;;;;;;5020525;28;20128;-75
2023/06/22 07:00:56;;;;;;;12.80;11.50;;;30.50;62.70;;;;;;5030274;28;20111;-76
2023/06/22 07:03:22;;;;;;;13.23;11.93;;;30.30;62.90;;;;;;5024445;28;20766;-75
2023/06/22 07:06:12;;;;;;;14.48;12.95;;;30.20;63.90;;;;;;5025442;28;20787;-75
2023/06/22 07:08:39;;;;;;;12.57;11.27;;;30.50;64.00;;;;;;5023660;28;20510;-73
2023/06/22 07:11:07;;;;;;;12.95;11.25;;;30.50;63.00;;;;;;5023022;28;20135;-80
2023/06/22 07:13:36;;;;;;;11.50;10.30;;;30.80;62.50;;;;;;5006679;28;20059;-74
2023/06/22 07:16:02;;;;;;;11.95;10.73;;;31.00;61.80;;;;;;5022595;28;20047;-79
2023/06/22 07:18:28;;;;;;;11.27;9.93;;;31.10;61.50;;;;;;5024282;28;20049;-78
2023/06/22 07:20:54;;;;;;;10.02;9.00;;;31.30;62.00;;;;;;5020292;28;20376;-76
2023/06/22 07:23:31;;;;;;;11.18;9.48;;;31.60;61.20;;;;;;5024269;28;20114;-79
2023/06/22 07:26:03;;;;;;;9.82;8.82;;;31.50;60.80;;;;;;5005053;28;20119;-77
2023/06/22 07:28:36;;;;;;;10.20;9.02;;;31.30;61.20;;;;;;5008155;28;20580;-73
2023/06/22 07:31:05;;;;;;;10.75;9.20;;;31.30;61.50;;;;;;5010062;28;20080;-81
2023/06/22 07:33:34;;;;;;;8.93;7.97;;;31.50;60.40;;;;;;5010352;28;20105;-72
2023/06/22 07:36:07;;;;;;;9.05;8.13;;;31.90;59.80;;;;;;5009175;28;20045;-75
2023/06/22 07:38:36;;;;;;;9.90;8.30;;;32.20;60.40;;;;;;5010238;28;20045;-75
2023/06/22 07:41:08;;;;;;;10.15;8.65;;;33.10;59.20;;;;;;5011612;28;20114;-76
2023/06/22 07:43:38;;;;;;;8.77;7.97;;;33.40;58.10;;;;;;5027997;28;20124;-76
2023/06/22 07:46:06;;;;;;;8.27;7.47;;;33.30;56.90;;;;;;5013155;28;20065;-72
2023/06/22 07:48:39;;;;;;;6.18;5.50;;;33.10;56.70;;;;;;5014059;28;20057;-76
2023/06/22 07:51:17;;;;;;;8.75;6.88;;;33.50;56.70;;;;;;5028956;28;20056;-81
2023/06/22 07:53:54;;;;;;;9.27;6.70;;;34.10;55.40;;;;;;5014501;28;20066;-75
2023/06/22 07:56:33;;;;;;;7.50;5.50;;;35.00;53.90;;;;;;5013054;28;20065;-73
2023/06/22 07:59:04;;;;;;;6.53;5.53;;;35.50;53.30;;;;;;5016913;28;20053;-76
2023/06/22 08:01:33;;;;;;;7.25;6.15;;;36.10;52.30;;;;;;5012316;28;20076;-73
2023/06/22 08:04:05;;;;;;;7.25;6.53;;;36.10;51.40;;;;;;5016055;28;20060;-75
2023/06/22 08:06:36;;;;;;;7.43;6.50;;;35.90;50.80;;;;;;5011951;28;20514;-77
2023/06/22 08:09:04;;;;;;;;;;;36.20;50.70;;;;;;5023611;28;20142;-75
2023/06/22 08:11:32;;;;;;;7.78;6.18;;;36.30;50.80;;;;;;5023586;28;19929;-78
2023/06/22 08:14:01;;;;;;;8.45;5.78;;;36.10;49.90;;;;;;5004118;28;20472;-78
2023/06/22 08:16:35;;;;;;;7.25;6.55;;;37.00;50.20;;;;;;5012523;28;20052;-77
2023/06/22 08:19:03;;;;;;;7.90;6.10;;;37.40;49.50;;;;;;5029739;28;20179;-75
2023/06/22 08:21:29;;;;;;;8.20;6.03;;;37.80;49.30;;;;;;5029185;28;20044;-74
2023/06/22 08:24:04;;;;;;;6.25;5.35;;;38.00;48.10;;;;;;5029301;28;20496;-79
2023/06/22 08:26:30;;;;;;;7.85;6.28;;;38.20;48.10;;;;;;5028523;28;20080;-77
2023/06/22 08:28:56;;;;;;;8.10;7.30;;;38.40;48.00;;;;;;5029463;28;20106;-72
2023/06/22 08:31:25;;;;;;;7.68;6.88;;;38.60;46.00;;;;;;5027858;28;20049;-76
2023/06/22 08:33:57;;;;;;;10.00;7.13;;;38.50;46.40;;;;;;5030074;28;20061;-74
2023/06/22 08:36:30;;;;;;;9.15;7.22;;;38.50;46.10;;;;;;5014193;28;20060;-75
2023/06/22 08:38:57;;;;;;;6.55;5.82;;;38.30;45.80;;;;;;5028195;28;20491;-73
2023/06/22 08:41:33;;;;;;;9.25;7.05;;;38.60;47.10;;;;;;5028341;28;20057;-77
2023/06/22 08:44:00;;;;;;;7.43;6.60;;;39.00;46.40;;;;;;5018798;28;20049;-76
2023/06/22 08:46:38;;;;;;;6.88;6.07;;;39.20;45.60;;;;;;5028480;28;20118;-78
2023/06/22 08:49:28;;;;;;;7.43;5.72;;;39.20;45.50;;;;;;5029144;28;20529;-74
2023/06/22 08:52:01;;;;;;;8.10;6.90;;;39.40;45.50;;;;;;5039563;28;20075;-79
2023/06/22 08:54:32;;;;;;;7.72;6.50;;;39.60;44.50;;;;;;5024028;28;20049;-78
2023/06/22 08:56:59;;;;;;;7.03;6.32;;;39.40;44.40;;;;;;5027659;28;20124;-79
2023/06/22 08:59:28;;;;;;;7.95;6.60;;;39.50;44.40;;;;;;5012248;28;20056;-77
2023/06/22 09:01:57;;;;;;;8.32;5.68;;;39.30;44.10;;;;;;5010514;28;20055;-74
2023/06/22 09:04:28;;;;;;;7.68;6.60;;;39.30;44.60;;;;;;5011087;28;20057;-76
2023/06/22 09:06:58;;;;;;;9.18;6.18;;;39.40;44.60;;;;;;5027565;28;20045;-75
2023/06/22 09:09:24;;;;;;;8.47;6.97;;;39.30;44.30;;;;;;5029167;28;20075;-78
2023/06/22 09:12:00;;;;;;;6.90;6.10;;;39.40;44.40;;;;;;5013161;28;20057;-77
2023/06/22 09:14:26;;;;;;;8.27;6.03;;;39.70;45.20;;;;;;5028920;28;20060;-76
2023/06/22 09:16:52;;;;;;;8.20;6.50;;;40.00;44.70;;;;;;5045404;28;20049;-74
2023/06/22 09:19:21;;;;;;;8.10;6.53;;;40.00;43.70;;;;;;5045022;28;20465;-74
2023/06/22 09:21:47;;;;;;;6.63;5.93;;;39.70;43.30;;;;;;5025186;28;20053;-76
2023/06/22 09:24:13;;;;;;;6.90;6.20;;;39.50;43.10;;;;;;5028887;28;20053;-76
2023/06/22 09:26:40;;;;;;;8.07;5.70;;;39.20;43.80;;;;;;5028930;28;20094;-78
2023/06/22 09:29:06;;;;;;;8.68;6.43;;;39.30;44.20;;;;;;5013048;28;20045;-76
2023/06/22 09:31:36;;;;;;;8.38;7.40;;;39.50;43.90;;;;;;5013246;28;20107;-78
2023/06/22 09:34:04;;;;;;;8.75;7.10;;;39.90;43.50;;;;;;5012892;28;20064;-71
2023/06/22 09:36:33;;;;;;;9.05;6.03;;;39.80;43.50;;;;;;5028298;28;20705;-73
2023/06/22 09:39:06;;;;;;;9.27;7.07;;;39.50;44.50;;;;;;5013992;28;20045;-78
2023/06/22 09:41:36;;;;;;;8.30;6.63;;;39.20;44.00;;;;;;5026490;28;20041;-74
2023/06/22 09:44:08;;;;;;;10.25;6.65;;;39.30;43.60;;;;;;5010124;28;20081;-76
2023/06/22 09:46:45;;;;;;;7.38;5.82;;;36.90;42.90;;;;;;5010160;28;20512;-72
2023/06/22 09:49:15;;;;;;;9.32;7.30;;;39.00;43.90;;;;;;5027084;28;20037;-77
2023/06/22 09:51:46;;;;;;;7.97;7.00;;;38.60;44.30;;;;;;5018387;28;20045;-76
2023/06/22 09:54:15;;;;;;;7.10;6.13;;;38.40;44.60;;;;;;5019485;28;20053;-75
2023/06/22 09:56:56;;;;;;;7.95;6.55;;;38.30;45.20;;;;;;5010838;28;20052;-72
2023/06/22 09:59:28;;;;;;;7.07;6.13;;;38.10;45.20;;;;;;5012435;28;20045;-76
2023/06/22 10:02:00;;;;;;;6.68;5.97;;;39.20;46.30;;;;;;5010352;28;20051;-73
2023/06/22 10:04:40;;;;;;;8.75;7.10;;;38.40;45.60;;;;;;5033119;28;20060;-75
2023/06/22 10:07:14;;;;;;;7.00;5.88;;;39.50;45.40;;;;;;5026699;28;20055;-73
2023/06/22 10:10:02;;;;;;;8.95;6.30;;;38.10;45.30;;;;;;5022800;28;20152;-75
2023/06/22 10:12:34;;;;;;;7.10;6.38;;;37.90;45.10;;;;;;5026745;28;20078;-73
2023/06/22 10:15:03;;;;;;;8.38;6.28;;;37.80;45.40;;;;;;5044088;28;20053;-72
2023/06/22 10:17:34;;;;;;;7.78;5.30;;;37.50;45.10;;;;;;5027848;28;20045;-78
2023/06/22 10:20:10;;;;;;;7.80;6.30;;;37.40;46.20;;;;;;5044617;28;20056;-75
2023/06/22 10:23:03;;;;;;;9.23;6.70;;;37.30;46.00;;;;;;5045257;28;20064;-80
2023/06/22 10:25:32;;;;;;;9.02;6.25;;;37.10;45.90;;;;;;5021227;28;20537;-71
2023/06/22 10:28:02;;;;;;;7.25;6.10;;;36.90;46.20;;;;;;5025865;28;20394;-75
2023/06/22 10:30:37;;;;;;;6.82;5.97;;;36.60;46.60;;;;;;5027812;28;20084;-75
2023/06/22 10:33:06;;;;;;;8.20;6.25;;;36.20;47.00;;;;;;5042310;28;20075;-75
2023/06/22 10:35:52;;;;;;;6.18;5.40;;;36.10;47.90;;;;;;5044426;28;20041;-75
2023/06/22 10:38:20;;;;;;;7.93;6.38;;;36.00;46.90;;;;;;5027872;28;20102;-73
2023/06/22 10:40:49;;;;;;;12.80;7.07;;;35.50;47.70;;;;;;5027432;28;20080;-76
2023/06/22 10:43:16;;;;;;;7.82;6.13;;;35.20;47.60;;;;;;5027235;28;20518;-74
2023/06/22 10:45:45;;;;;;;7.25;5.55;;;34.80;48.70;;;;;;5025914;28;20128;-75
2023/06/22 10:48:13;;;;;;;6.63;5.93;;;34.40;50.00;;;;;;5026986;28;20124;-74
2023/06/22 10:50:49;;;;;;;6.47;5.80;;;33.90;50.20;;;;;;5029494;28;20098;-69
2023/06/22 10:53:17;;;;;;;9.05;6.20;;;33.60;50.50;;;;;;5027285;28;20052;-73
2023/06/22 10:55:46;;;;;;;8.75;6.68;;;33.10;51.30;;;;;;5025924;28;20076;-73
2023/06/22 10:58:14;;;;;;;9.90;6.60;;;32.30;52.00;;;;;;5027429;28;20048;-81
2023/06/22 11:00:43;;;;;;;6.72;5.28;;;31.70;53.40;;;;;;5027730;28;20536;-73
2023/06/22 11:03:11;;;;;;;8.05;6.63;;;31.10;54.80;;;;;;5026963;28;20060;-73
2023/06/22 11:05:40;;;;;;;10.05;7.07;;;30.60;55.00;;;;;;5030186;28;20121;-76
2023/06/22 11:08:09;;;;;;;9.27;6.85;;;30.20;55.60;;;;;;5031738;28;20052;-74
2023/06/22 11:10:38;;;;;;;6.90;5.20;;;30.00;56.00;;;;;;5029471;28;20098;-77
2023/06/22 11:13:11;;;;;;;8.10;7.30;;;29.90;57.00;;;;;;5028209;28;20083;-74
2023/06/22 11:15:39;;;;;;;7.05;5.80;;;29.70;56.20;;;;;;5031585;28;20044;-74
2023/06/22 11:18:08;;;;;;;7.75;6.78;;;29.60;56.50;;;;;;5032916;28;20048;-74
2023/06/22 11:20:40;;;;;;;8.32;5.80;;;29.50;57.00;;;;;;5033574;28;20060;-75
2023/06/22 11:23:17;;;;;;;7.03;4.80;;;29.60;57.70;;;;;;5066081;28;20083;-73
2023/06/22 11:25:46;;;;;;;8.25;5.80;;;29.70;58.60;;;;;;5033515;28;20186;-77
2023/06/22 11:28:13;;;;;;;7.68;5.07;;;29.60;58.20;;;;;;5034428;28;20049;-77
2023/06/22 11:30:41;;;;;;;7.43;5.53;;;29.60;58.50;;;;;;5028842;28;20092;-76
2023/06/22 11:33:16;;;;;;;6.35;4.35;;;29.40;58.40;;;;;;5033553;28;20090;-74
2023/06/22 11:35:45;;;;;;;7.28;4.80;;;29.50;59.60;;;;;;5027621;28;20383;-74
2023/06/22 11:38:16;;;;;;;8.15;5.30;;;29.60;59.80;;;;;;5032558;28;20052;-77
2023/06/22 11:40:45;;;;;;;9.07;6.40;;;29.70;58.60;;;;;;5033255;28;20040;-74
2023/06/22 11:43:21;;;;;;;5.75;4.50;;;29.90;58.10;;;;;;5032726;28;20048;-74
2023/06/22 11:45:50;;;;;;;10.30;5.18;;;29.90;58.80;;;;;;5031874;28;20127;-75
2023/06/22 11:48:18;;;;;;;9.10;6.55;;;30.10;59.40;;;;;;5035884;28;20067;-76
2023/06/22 11:50:47;;;;;;;7.85;6.07;;;30.10;57.90;;;;;;5029882;28;20060;-74
2023/06/22 11:53:17;;;;;;;5.97;4.32;;;30.00;57.80;;;;;;5045284;28;20687;-73
2023/06/22 11:55:46;;;;;;;8.25;5.97;;;29.80;58.10;;;;;;5024999;28;20047;-75
2023/06/22 11:58:16;;;;;;;6.60;5.25;;;29.60;57.80;;;;;;5045136;28;20090;-74
2023/06/22 12:00:45;;;;;;;6.00;4.70;;;29.40;58.20;;;;;;5046389;28;20036;-74
2023/06/22 12:03:16;;;;;;;6.15;5.45;;;29.40;59.70;;;;;;5044277;28;20051;-77
2023/06/22 12:05:44;;;;;;;6.95;5.20;;;29.50;59.20;;;;;;5027920;28;20144;-74
2023/06/22 12:08:20;;;;;;;9.23;4.85;;;29.50;59.20;;;;;;5022485;28;20059;-77
2023/06/22 12:10:50;;;;;;;8.88;5.43;;;29.60;58.90;;;;;;5030245;28;20674;-75
2023/06/22 12:13:38;;;;;;;8.60;6.28;;;29.60;58.80;;;;;;5024749;28;20209;-75
2023/06/22 12:16:06;;;;;;;6.97;5.22;;;29.50;58.90;;;;;;5035204;28;20045;-79
2023/06/22 12:18:39;;;;;;;6.68;4.82;;;29.30;59.40;;;;;;5029669;28;20152;-75
2023/06/22 12:21:08;;;;;;;6.65;4.05;;;29.30;60.10;;;;;;5029867;28;20122;-76
2023/06/22 12:23:36;;;;;;;5.80;4.55;;;29.50;61.00;;;;;;5028239;28;20040;-74
2023/06/22 12:26:06;;;;;;;6.93;5.47;;;29.50;60.00;;;;;;5028756;28;20043;-75
2023/06/22 12:28:36;;;;;;;7.80;5.72;;;29.30;59.50;;;;;;5029129;28;20539;-75
2023/06/22 12:31:13;;;;;;;6.10;4.97;;;29.30;59.20;;;;;;5023519;28;20453;-80
2023/06/22 12:33:52;;;;;;;5.63;4.47;;;29.30;58.50;;;;;;5049270;28;21078;-78
2023/06/22 12:36:26;;;;;;;6.70;4.78;;;29.20;59.60;;;;;;5031073;28;20127;-76
2023/06/22 12:38:58;;;;;;;8.95;5.60;;;29.20;60.10;;;;;;5045225;28;20052;-76
2023/06/22 12:41:32;;;;;;;25.92;6.63;;;29.20;59.60;;;;;;5026872;28;20456;-75
2023/06/22 12:44:03;;;;;;;16.50;5.10;;;29.70;59.90;;;;;;5043513;28;20539;-76
2023/06/22 12:46:46;;;;;;;7.57;5.20;;;29.10;60.50;;;;;;5026342;28;20075;-78
2023/06/22 12:49:16;;;;;;;7.68;4.40;;;29.00;60.60;;;;;;5043473;28;20807;-72
2023/06/22 12:51:44;;;;;;;6.57;5.05;;;29.00;61.90;;;;;;5036289;28;20127;-75
2023/06/22 12:54:14;;;;;;;4.30;3.50;;;28.90;61.80;;;;;;5042760;28;20052;-75